Time;durP1;ratioP1;P1;durP2;ratioP2;P2;SDS_P1;SDS_P2;PMS_P1;PMS_P2;Temp;Humidity;BMP_temperature;BMP_pressure;BME280_temperature;BME280_humidity;BME280_pressure;Samples;Min_cycle;Max_cycle;Signal;HPM_P1;HPM_P2
2023/01/26 00:00:29;;;;;;;19.67;13.43;;;;;;;;;;5054548;28;20399;-81
2023/01/26 00:02:55;;;;;;;22.45;13.90;;;;;;;;;;5072378;28;20035;-81
2023/01/26 00:05:20;;;;;;;21.60;14.55;;;;;;;;;;5054953;28;20032;-81
2023/01/26 00:07:46;;;;;;;20.98;14.60;;;;;;;;;;5058174;28;20479;-81
2023/01/26 00:10:11;;;;;;;20.23;13.63;;;;;;;;;;5057906;28;20025;-80
2023/01/26 00:12:37;;;;;;;20.23;14.30;;;;;;;;;;5075810;28;20115;-81
2023/01/26 00:15:03;;;;;;;20.52;14.23;;;;;;;;;;5058395;28;20066;-81
2023/01/26 00:17:28;;;;;;;22.38;14.40;;;;;;;;;;5057835;28;20039;-81
2023/01/26 00:19:57;;;;;;;19.13;13.48;;;;;;;;;;5075726;28;20045;-82
2023/01/26 00:22:24;;;;;;;22.92;14.38;;;;;;;;;;5058077;28;20032;-82
2023/01/26 00:24:49;;;;;;;19.73;13.38;;;;;;;;;;5057568;28;20024;-81
2023/01/26 00:27:15;;;;;;;21.58;14.27;;;;;;;;;;5041820;28;20078;-81
2023/01/26 00:29:40;;;;;;;20.65;13.82;;;;;;;;;;5075540;28;20029;-82
2023/01/26 00:32:06;;;;;;;19.92;14.35;;;;;;;;;;5057618;28;20025;-81
2023/01/26 00:34:31;;;;;;;19.67;14.55;;;;;;;;;;5057915;28;20456;-82
2023/01/26 00:36:57;;;;;;;20.35;13.85;;;;;;;;;;5057418;28;20063;-82
2023/01/26 00:39:22;;;;;;;20.50;13.95;;;;;;;;;;5057635;28;20024;-82
2023/01/26 00:42:05;;;;;;;20.17;14.20;;;;;;;;;;5057532;28;20048;-81
2023/01/26 00:44:31;;;;;;;18.50;12.90;;;;;;;;;;5075279;28;20107;-81
2023/01/26 00:46:57;;;;;;;19.40;13.20;;;;;;;;;;5075258;28;20790;-81
2023/01/26 00:49:22;;;;;;;20.48;14.48;;;;;;;;;;5057184;28;20484;-81
2023/01/26 00:51:48;;;;;;;19.52;14.00;;;;;;;;;;5075515;28;20037;-81
2023/01/26 00:54:13;;;;;;;20.52;14.05;;;;;;;;;;5075457;28;20056;-82
2023/01/26 00:56:38;;;;;;;20.08;13.88;;;;;;;;;;5074355;28;20036;-82
2023/01/26 00:59:05;;;;;;;20.17;13.88;;;;;;;;;;5075427;28;20024;-82
2023/01/26 01:01:30;;;;;;;21.63;14.93;;;;;;;;;;5057156;28;20029;-81
2023/01/26 01:03:56;;;;;;;18.77;13.43;;;;;;;;;;5057169;28;20039;-80
2023/01/26 01:06:21;;;;;;;19.98;14.02;;;;;;;;;;5040752;28;20491;-81
2023/01/26 01:08:46;;;;;;;19.42;13.55;;;;;;;;;;5074942;28;20028;-82
2023/01/26 01:11:12;;;;;;;18.83;13.57;;;;;;;;;;5057455;28;20025;-82
2023/01/26 01:13:38;;;;;;;20.10;13.73;;;;;;;;;;5040360;28;20437;-81
2023/01/26 01:16:05;;;;;;;18.33;13.30;;;;;;;;;;5056931;28;20433;-82
2023/01/26 01:18:31;;;;;;;20.55;13.27;;;;;;;;;;5039396;28;20033;-81
2023/01/26 01:20:56;;;;;;;19.40;13.38;;;;;;;;;;5074573;28;20490;-81
2023/01/26 01:23:21;;;;;;;19.48;13.57;;;;;;;;;;5074778;28;20035;-81
2023/01/26 01:25:55;;;;;;;18.38;13.13;;;;;;;;;;5074699;28;20107;-81
2023/01/26 01:28:21;;;;;;;19.00;13.68;;;;;;;;;;5056518;28;20025;-81
2023/01/26 01:30:46;;;;;;;21.17;13.63;;;;;;;;;;5056393;28;20028;-81
2023/01/26 01:33:11;;;;;;;19.58;13.43;;;;;;;;;;5040100;28;20109;-81
2023/01/26 01:35:37;;;;;;;18.52;13.18;;;;;;;;;;5056367;28;20420;-80
2023/01/26 01:38:02;;;;;;;16.85;13.45;;;;;;;;;;5074247;28;20032;-80
2023/01/26 01:40:28;;;;;;;19.63;13.52;;;;;;;;;;5056708;28;20048;-80
2023/01/26 01:42:53;;;;;;;21.73;12.95;;;;;;;;;;5056083;28;20055;-81
2023/01/26 01:45:24;;;;;;;20.33;12.65;;;;;;;;;;5074412;28;20040;-81
2023/01/26 01:47:53;;;;;;;18.15;13.38;;;;;;;;;;5074371;28;20028;-80
2023/01/26 01:50:19;;;;;;;15.73;12.15;;;;;;;;;;5056496;28;20521;-80
2023/01/26 01:52:45;;;;;;;15.68;11.77;;;;;;;;;;5074159;28;20036;-81
2023/01/26 01:55:12;;;;;;;16.67;12.25;;;;;;;;;;5074043;28;20046;-80
2023/01/26 01:57:52;;;;;;;17.23;12.70;;;;;;;;;;5056156;28;20457;-82
2023/01/26 02:00:20;;;;;;;18.00;12.32;;;;;;;;;;5074334;28;20108;-82
2023/01/26 02:03:09;;;;;;;18.00;12.00;;;;;;;;;;5055874;28;20021;-82
2023/01/26 02:05:41;;;;;;;16.15;11.57;;;;;;;;;;5073770;28;20506;-81
2023/01/26 02:08:08;;;;;;;14.38;11.00;;;;;;;;;;5055842;28;20024;-81
2023/01/26 02:10:34;;;;;;;15.40;11.68;;;;;;;;;;5056066;28;20612;-81
2023/01/26 02:13:00;;;;;;;17.38;12.25;;;;;;;;;;5055838;28;20115;-81
2023/01/26 02:15:26;;;;;;;15.98;11.88;;;;;;;;;;5056597;28;20519;-81
2023/01/26 02:17:52;;;;;;;14.60;11.40;;;;;;;;;;5073661;28;20068;-81
2023/01/26 02:20:28;;;;;;;14.00;11.00;;;;;;;;;;5041132;28;20538;-81
2023/01/26 02:22:53;;;;;;;15.65;11.40;;;;;;;;;;5036085;28;20029;-81
2023/01/26 02:25:26;;;;;;;16.52;11.45;;;;;;;;;;5035552;28;20082;-81
2023/01/26 02:27:52;;;;;;;13.90;11.05;;;;;;;;;;5030649;28;20033;-80
2023/01/26 02:30:17;;;;;;;14.48;11.02;;;;;;;;;;5032408;28;20091;-80
2023/01/26 02:32:43;;;;;;;14.23;10.25;;;;;;;;;;4999427;28;20026;-80
2023/01/26 02:35:08;;;;;;;16.05;10.38;;;;;;;;;;4999405;28;20031;-80
2023/01/26 02:37:33;;;;;;;13.85;10.13;;;;;;;;;;5016182;28;20346;-80
2023/01/26 02:40:03;;;;;;;14.55;10.85;;;;;;;;;;5015579;28;20113;-80
2023/01/26 02:42:37;;;;;;;13.70;10.05;;;;;;;;;;5015723;28;20052;-80
2023/01/26 02:45:04;;;;;;;11.93;9.45;;;;;;;;;;5033549;28;20033;-80
2023/01/26 02:47:30;;;;;;;14.05;9.85;;;;;;;;;;4999906;28;20464;-81
2023/01/26 02:49:57;;;;;;;13.23;9.60;;;;;;;;;;5015802;28;20133;-80
2023/01/26 02:52:24;;;;;;;12.93;9.82;;;;;;;;;;5033458;28;20484;-81
2023/01/26 02:57:34;;;;;;;14.63;10.23;;;;;;;;;;5033468;28;20083;-80
2023/01/26 03:00:00;;;;;;;13.27;10.18;;;;;;;;;;5015452;28;20026;-80
2023/01/26 03:02:26;;;;;;;15.00;10.40;;;;;;;;;;5015470;28;20376;-80
2023/01/26 03:04:51;;;;;;;15.05;10.63;;;;;;;;;;5015549;28;20121;-80
2023/01/26 03:07:17;;;;;;;13.77;10.73;;;;;;;;;;5033152;28;20036;-80
2023/01/26 03:09:42;;;;;;;13.18;9.77;;;;;;;;;;5015437;28;20436;-79
2023/01/26 03:12:08;;;;;;;11.88;9.27;;;;;;;;;;4998952;28;20037;-80
2023/01/26 03:14:33;;;;;;;15.02;10.13;;;;;;;;;;5033090;28;20037;-79
2023/01/26 03:16:59;;;;;;;11.95;9.27;;;;;;;;;;5015225;28;20029;-79
2023/01/26 03:27:44;;;;;;;11.70;8.75;;;;;;;;;;5033214;28;20104;-78
2023/01/26 03:30:10;;;;;;;11.77;9.52;;;;;;;;;;5015086;28;20025;-79
2023/01/26 03:32:35;;;;;;;14.15;9.52;;;;;;;;;;5032944;28;20025;-79
2023/01/26 03:35:01;;;;;;;11.40;8.85;;;;;;;;;;5032979;28;20029;-78
2023/01/26 03:37:26;;;;;;;11.65;8.95;;;;;;;;;;5032590;28;20087;-79
2023/01/26 03:56:21;;;;;;;10.25;8.48;;;;;;;;;;5021540;28;20115;-78
2023/01/26 03:58:55;;;;;;;11.57;8.35;;;;;;;;;;5018570;28;20280;-78
2023/01/26 04:01:26;;;;;;;11.20;8.35;;;;;;;;;;5018577;28;20057;-78
2023/01/26 04:09:26;;;;;;;9.68;6.97;;;;;;;;;;5021168;28;20036;-78
2023/01/26 04:11:51;;;;;;;10.63;8.10;;;;;;;;;;5018585;28;20116;-78
2023/01/26 04:22:39;;;;;;;9.23;7.63;;;;;;;;;;5035717;28;20109;-78
2023/01/26 04:25:06;;;;;;;9.60;7.25;;;;;;;;;;5002057;28;20029;-78
2023/01/26 04:27:33;;;;;;;10.43;7.40;;;;;;;;;;5001719;28;20030;-78
2023/01/26 04:29:59;;;;;;;9.82;6.95;;;;;;;;;;5035553;28;20079;-78
2023/01/26 04:32:26;;;;;;;8.80;6.78;;;;;;;;;;5017824;28;20080;-78
2023/01/26 04:34:51;;;;;;;11.00;7.75;;;;;;;;;;5035640;28;20076;-79
2023/01/26 04:37:16;;;;;;;9.00;6.88;;;;;;;;;;5017819;28;20037;-79
2023/01/26 04:39:42;;;;;;;8.52;6.90;;;;;;;;;;5017654;28;20484;-79
2023/01/26 04:42:07;;;;;;;10.40;7.13;;;;;;;;;;5017564;28;20110;-80
2023/01/26 04:44:32;;;;;;;8.98;6.70;;;;;;;;;;5035671;28;20026;-80
2023/01/26 04:46:58;;;;;;;7.45;6.38;;;;;;;;;;5017485;28;20087;-80
2023/01/26 04:49:23;;;;;;;8.90;6.47;;;;;;;;;;5035216;28;20030;-80
2023/01/26 04:51:49;;;;;;;8.65;6.45;;;;;;;;;;5034860;28;20120;-80
2023/01/26 04:54:14;;;;;;;7.28;6.13;;;;;;;;;;5034973;28;20021;-80
2023/01/26 04:56:39;;;;;;;8.05;6.10;;;;;;;;;;5035244;28;20064;-80
2023/01/26 04:59:06;;;;;;;8.52;6.78;;;;;;;;;;5017336;28;20472;-80
2023/01/26 05:01:32;;;;;;;8.23;6.32;;;;;;;;;;5035323;28;20025;-80
2023/01/26 05:04:02;;;;;;;8.35;6.60;;;;;;;;;;5035286;28;20120;-81
2023/01/26 05:06:28;;;;;;;7.43;6.10;;;;;;;;;;5017603;28;20033;-80
2023/01/26 05:08:54;;;;;;;8.05;6.00;;;;;;;;;;5017637;28;20034;-80
2023/01/26 05:11:20;;;;;;;8.13;6.03;;;;;;;;;;5017745;28;20060;-80
2023/01/26 05:13:46;;;;;;;8.88;6.38;;;;;;;;;;5017492;28;20036;-80
2023/01/26 05:16:13;;;;;;;7.60;6.22;;;;;;;;;;5035083;28;20032;-80
2023/01/26 05:18:41;;;;;;;7.88;6.05;;;;;;;;;;5035570;28;20040;-80
2023/01/26 05:21:08;;;;;;;7.07;5.57;;;;;;;;;;5054929;28;20112;-81
2023/01/26 05:23:33;;;;;;;8.38;6.25;;;;;;;;;;5037193;28;20507;-79
2023/01/26 05:25:58;;;;;;;7.50;5.90;;;;;;;;;;5036980;28;20033;-80
2023/01/26 05:28:24;;;;;;;6.65;5.32;;;;;;;;;;5020619;28;20567;-80
2023/01/26 05:30:49;;;;;;;7.78;6.07;;;;;;;;;;5054781;28;20029;-80
2023/01/26 05:33:15;;;;;;;6.38;5.65;;;;;;;;;;5036991;28;20468;-79
2023/01/26 05:35:41;;;;;;;7.70;6.07;;;;;;;;;;5055023;28;20104;-79
2023/01/26 05:38:06;;;;;;;8.77;6.18;;;;;;;;;;5054603;28;20107;-79
2023/01/26 05:40:32;;;;;;;12.13;6.55;;;;;;;;;;5054518;28;20033;-79
2023/01/26 05:42:57;;;;;;;14.32;6.50;;;;;;;;;;5037460;28;20037;-79
2023/01/26 05:45:22;;;;;;;12.00;6.05;;;;;;;;;;5036861;28;20064;-79
2023/01/26 05:47:48;;;;;;;15.15;6.88;;;;;;;;;;5054347;28;20040;-77
2023/01/26 05:50:14;;;;;;;11.27;5.90;;;;;;;;;;5036449;28;20033;-78
2023/01/26 05:52:41;;;;;;;13.30;6.30;;;;;;;;;;5036686;28;20040;-77
2023/01/26 05:55:07;;;;;;;12.90;6.93;;;;;;;;;;5036564;28;20021;-77
2023/01/26 05:57:32;;;;;;;13.20;6.13;;;;;;;;;;5054451;28;20183;-77
2023/01/26 05:59:57;;;;;;;12.10;6.25;;;;;;;;;;5019903;28;20036;-78
2023/01/26 06:02:26;;;;;;;11.80;5.90;;;;;;;;;;5019871;28;20132;-77
2023/01/26 06:04:51;;;;;;;11.55;5.82;;;;;;;;;;5036258;28;20028;-78
2023/01/26 06:07:17;;;;;;;13.23;6.25;;;;;;;;;;5054522;28;20033;-80
2023/01/26 06:09:42;;;;;;;20.10;6.60;;;;;;;;;;5054131;28;20029;-79
2023/01/26 06:12:19;;;;;;;15.30;7.50;;;;;;;;;;5019463;28;20044;-78
2023/01/26 06:14:44;;;;;;;26.45;7.22;;;;;;;;;;5036284;28;20025;-79
2023/01/26 06:17:10;;;;;;;15.52;7.72;;;;;;;;;;5036256;28;20028;-80
2023/01/26 06:19:36;;;;;;;13.18;6.95;;;;;;;;;;5027349;28;20053;-80
2023/01/26 06:22:02;;;;;;;17.40;7.32;;;;;;;;;;5016402;28;20509;-81
2023/01/26 06:24:28;;;;;;;19.23;8.85;;;;;;;;;;5033740;28;20029;-81
2023/01/26 06:26:54;;;;;;;18.83;7.63;;;;;;;;;;5033705;28;20037;-81
2023/01/26 06:29:19;;;;;;;14.60;7.10;;;;;;;;;;5033736;28;20480;-80
2023/01/26 06:31:44;;;;;;;14.93;7.38;;;;;;;;;;5015897;28;20029;-80
2023/01/26 06:34:10;;;;;;;13.50;7.72;;;;;;;;;;5016281;28;20029;-80
2023/01/26 06:36:35;;;;;;;16.30;8.23;;;;;;;;;;5015977;28;20037;-80
2023/01/26 06:39:01;;;;;;;23.38;8.48;;;;;;;;;;5016179;28;20052;-77
2023/01/26 06:41:26;;;;;;;16.52;8.27;;;;;;;;;;5033441;28;20116;-78
2023/01/26 06:43:52;;;;;;;14.00;7.70;;;;;;;;;;5033422;28;20400;-80
2023/01/26 06:46:18;;;;;;;16.13;7.88;;;;;;;;;;5015831;28;20462;-80
2023/01/26 06:48:44;;;;;;;16.38;7.70;;;;;;;;;;5016036;28;20025;-80
2023/01/26 06:51:15;;;;;;;11.65;7.15;;;;;;;;;;5033465;28;20036;-79
2023/01/26 06:53:47;;;;;;;18.73;7.35;;;;;;;;;;5015654;28;20095;-79
2023/01/26 06:56:13;;;;;;;12.88;7.03;;;;;;;;;;5033372;28;20033;-80
2023/01/26 06:58:38;;;;;;;12.55;6.53;;;;;;;;;;5033809;28;20026;-81
2023/01/26 07:01:04;;;;;;;15.10;7.30;;;;;;;;;;5033286;28;20376;-81
2023/01/26 07:03:29;;;;;;;15.50;8.15;;;;;;;;;;5015609;28;20056;-80
2023/01/26 07:05:55;;;;;;;12.88;6.88;;;;;;;;;;5033348;28;20033;-80
2023/01/26 07:08:20;;;;;;;13.70;7.88;;;;;;;;;;5033255;28;20108;-80
2023/01/26 07:10:46;;;;;;;18.08;7.03;;;;;;;;;;5033290;28;20029;-80
2023/01/26 07:13:11;;;;;;;13.13;7.50;;;;;;;;;;5016012;28;20112;-80
2023/01/26 07:15:36;;;;;;;19.38;7.55;;;;;;;;;;5016598;28;20033;-79
2023/01/26 07:18:02;;;;;;;14.35;7.47;;;;;;;;;;5003180;28;20061;-80
2023/01/26 07:20:27;;;;;;;14.18;7.63;;;;;;;;;;5023110;28;20057;-80
2023/01/26 07:22:53;;;;;;;12.57;7.03;;;;;;;;;;5039131;28;20021;-80
2023/01/26 07:25:18;;;;;;;9.88;6.80;;;;;;;;;;5057017;28;20437;-80
2023/01/26 07:27:44;;;;;;;11.20;7.65;;;;;;;;;;5039215;28;20071;-79
2023/01/26 07:30:13;;;;;;;14.48;7.97;;;;;;;;;;5056874;28;20028;-79
2023/01/26 07:32:38;;;;;;;15.98;7.45;;;;;;;;;;5039765;28;20109;-79
2023/01/26 07:35:05;;;;;;;15.25;7.20;;;;;;;;;;5057163;28;20045;-80
2023/01/26 07:37:30;;;;;;;11.65;7.20;;;;;;;;;;5038964;28;20082;-80
2023/01/26 07:39:55;;;;;;;12.35;7.55;;;;;;;;;;5057127;28;20112;-79
2023/01/26 07:42:21;;;;;;;11.48;7.10;;;;;;;;;;5057018;28;20033;-79
2023/01/26 07:44:46;;;;;;;11.85;7.60;;;;;;;;;;5038500;28;20036;-79
2023/01/26 07:47:13;;;;;;;12.27;7.15;;;;;;;;;;5038729;28;20040;-79
2023/01/26 07:49:39;;;;;;;12.40;7.93;;;;;;;;;;5056911;28;20045;-79
2023/01/26 07:52:04;;;;;;;12.02;7.25;;;;;;;;;;5038717;28;20033;-79
2023/01/26 07:54:30;;;;;;;10.20;7.40;;;;;;;;;;5038600;28;20086;-79
2023/01/26 07:56:55;;;;;;;10.63;7.78;;;;;;;;;;5056486;28;20036;-79
2023/01/26 07:59:21;;;;;;;10.13;7.00;;;;;;;;;;5056385;28;20112;-79
2023/01/26 08:01:50;;;;;;;10.55;7.13;;;;;;;;;;5038706;28;20472;-79
2023/01/26 08:04:15;;;;;;;11.25;7.13;;;;;;;;;;5038363;28;20029;-79
2023/01/26 08:06:41;;;;;;;13.48;7.93;;;;;;;;;;5021882;28;20035;-79
2023/01/26 08:09:07;;;;;;;12.55;7.97;;;;;;;;;;5056496;28;20421;-79
2023/01/26 08:11:32;;;;;;;13.40;7.40;;;;;;;;;;5021780;28;20099;-79
2023/01/26 08:13:58;;;;;;;12.05;7.32;;;;;;;;;;5056193;28;20115;-79
2023/01/26 08:16:23;;;;;;;10.35;7.20;;;;;;;;;;5038301;28;20105;-80
2023/01/26 08:18:49;;;;;;;10.30;7.88;;;;;;;;;;5057965;28;20395;-80
2023/01/26 08:21:16;;;;;;;12.32;7.57;;;;;;;;;;5076298;28;20056;-80
2023/01/26 08:23:42;;;;;;;13.55;7.93;;;;;;;;;;5058333;28;20056;-80
2023/01/26 08:26:11;;;;;;;12.90;7.80;;;;;;;;;;5057931;28;20040;-79
2023/01/26 08:28:37;;;;;;;12.95;7.90;;;;;;;;;;5058367;28;20074;-79
2023/01/26 08:31:11;;;;;;;11.15;7.78;;;;;;;;;;5058291;28;20028;-79
2023/01/26 08:33:37;;;;;;;12.25;7.85;;;;;;;;;;5058334;28;20021;-79
2023/01/26 08:36:04;;;;;;;11.80;7.75;;;;;;;;;;5057916;28;20422;-79
2023/01/26 08:38:31;;;;;;;12.02;7.75;;;;;;;;;;5025446;28;20025;-79
2023/01/26 08:40:57;;;;;;;12.18;7.72;;;;;;;;;;5057895;28;20028;-78
2023/01/26 08:43:23;;;;;;;11.20;7.97;;;;;;;;;;5057578;28;20533;-79
2023/01/26 08:45:48;;;;;;;14.57;8.07;;;;;;;;;;5057774;28;20060;-78
2023/01/26 08:48:14;;;;;;;12.55;7.82;;;;;;;;;;5057710;28;20107;-79
2023/01/26 08:50:39;;;;;;;13.93;8.63;;;;;;;;;;5057627;28;20397;-80
2023/01/26 08:53:04;;;;;;;13.15;9.05;;;;;;;;;;5057874;28;20028;-80
2023/01/26 08:55:31;;;;;;;14.60;8.55;;;;;;;;;;5075464;28;20071;-80
2023/01/26 08:57:57;;;;;;;15.75;8.98;;;;;;;;;;5076119;28;20036;-80
2023/01/26 09:00:22;;;;;;;15.82;9.15;;;;;;;;;;5057795;28;20471;-80
2023/01/26 09:02:48;;;;;;;11.75;8.07;;;;;;;;;;5075744;28;20032;-80
2023/01/26 09:05:13;;;;;;;17.67;8.10;;;;;;;;;;5075150;28;20178;-78
2023/01/26 09:07:39;;;;;;;13.75;8.10;;;;;;;;;;5057590;28;20024;-79
2023/01/26 09:10:05;;;;;;;11.82;7.78;;;;;;;;;;5075443;28;20537;-79
2023/01/26 09:12:30;;;;;;;12.32;7.53;;;;;;;;;;5040598;28;20410;-79
2023/01/26 09:14:56;;;;;;;14.52;8.68;;;;;;;;;;5075113;28;20024;-79
2023/01/26 09:17:21;;;;;;;11.23;7.82;;;;;;;;;;5057098;28;20486;-79
2023/01/26 09:19:46;;;;;;;13.13;8.20;;;;;;;;;;5074884;28;20111;-78
2023/01/26 09:22:12;;;;;;;12.68;7.40;;;;;;;;;;5074750;28;20454;-78
2023/01/26 09:24:37;;;;;;;11.15;8.05;;;;;;;;;;5074691;28;20102;-78
2023/01/26 09:27:03;;;;;;;13.15;7.43;;;;;;;;;;5056903;28;20029;-78
2023/01/26 09:29:28;;;;;;;13.70;7.60;;;;;;;;;;5074727;28;20449;-78
2023/01/26 09:31:53;;;;;;;12.57;8.10;;;;;;;;;;5074647;28;20058;-78
2023/01/26 09:34:19;;;;;;;11.98;7.78;;;;;;;;;;5074872;28;20124;-79
2023/01/26 09:36:44;;;;;;;13.73;7.70;;;;;;;;;;5074679;28;20493;-78
2023/01/26 09:39:09;;;;;;;15.63;7.38;;;;;;;;;;5074754;28;20032;-78
2023/01/26 09:42:11;;;;;;;14.45;7.90;;;;;;;;;;5074637;28;20024;-78
2023/01/26 09:44:47;;;;;;;11.27;7.15;;;;;;;;;;5073692;28;20135;-78
2023/01/26 09:47:18;;;;;;;10.70;7.25;;;;;;;;;;5039812;28;20033;-78
2023/01/26 09:49:47;;;;;;;12.38;7.78;;;;;;;;;;5056670;28;20047;-79
2023/01/26 09:52:19;;;;;;;10.27;7.20;;;;;;;;;;5056615;28;20043;-78
2023/01/26 09:54:51;;;;;;;10.73;6.82;;;;;;;;;;5056333;28;20017;-79
2023/01/26 09:57:27;;;;;;;10.55;6.93;;;;;;;;;;5040475;28;20028;-79
2023/01/26 09:59:57;;;;;;;9.93;6.82;;;;;;;;;;5056312;28;20383;-78
2023/01/26 10:02:34;;;;;;;11.38;7.10;;;;;;;;;;5039614;28;20029;-78
2023/01/26 10:05:06;;;;;;;10.55;7.40;;;;;;;;;;5073929;28;20025;-78
2023/01/26 10:07:32;;;;;;;11.23;7.10;;;;;;;;;;5056154;28;20033;-76
2023/01/26 10:09:58;;;;;;;10.95;6.70;;;;;;;;;;5048595;28;20028;-78
2023/01/26 10:12:34;;;;;;;12.57;7.18;;;;;;;;;;5073977;28;20036;-76
2023/01/26 10:15:18;;;;;;;10.35;7.13;;;;;;;;;;5055526;28;20173;-78
2023/01/26 10:17:44;;;;;;;;;;;;;;;;;;5056334;28;20016;-76
2023/01/26 10:20:47;;;;;;;10.80;5.80;;;;;;;;;;5044382;28;19972;-77
2023/01/26 10:23:16;;;;;;;10.77;6.28;;;;;;;;;;5035668;28;20025;-77
2023/01/26 10:25:43;;;;;;;11.02;6.97;;;;;;;;;;5053250;28;20025;-78
2023/01/26 10:28:30;;;;;;;23.58;7.80;;;;;;;;;;5035607;28;20040;-77
2023/01/26 10:30:56;;;;;;;12.45;6.47;;;;;;;;;;5035379;28;20032;-79
2023/01/26 10:33:35;;;;;;;15.00;6.60;;;;;;;;;;5035662;28;20021;-79
2023/01/26 10:36:03;;;;;;;11.10;6.45;;;;;;;;;;5053219;28;20051;-79
2023/01/26 10:38:32;;;;;;;21.50;7.57;;;;;;;;;;5035450;28;20067;-78
2023/01/26 10:41:13;;;;;;;12.55;7.38;;;;;;;;;;5053455;28;20029;-80
2023/01/26 10:43:55;;;;;;;13.85;6.72;;;;;;;;;;5053593;28;20032;-79
2023/01/26 10:46:33;;;;;;;12.93;6.50;;;;;;;;;;5035745;28;20025;-78
2023/01/26 10:49:13;;;;;;;9.32;5.80;;;;;;;;;;5035594;28;20052;-78
2023/01/26 10:51:43;;;;;;;12.05;6.32;;;;;;;;;;5034923;28;20021;-78
2023/01/26 10:54:23;;;;;;;11.38;6.75;;;;;;;;;;5019162;28;20452;-78
2023/01/26 10:57:01;;;;;;;12.48;6.03;;;;;;;;;;5036111;28;20039;-79
2023/01/26 10:59:44;;;;;;;12.57;6.15;;;;;;;;;;5018951;28;20035;-78
2023/01/26 11:02:10;;;;;;;13.93;6.65;;;;;;;;;;5053554;28;20021;-78
2023/01/26 11:04:35;;;;;;;10.43;5.90;;;;;;;;;;5053166;28;20025;-78
2023/01/26 11:07:24;;;;;;;10.10;5.55;;;;;;;;;;5053322;28;20080;-77
2023/01/26 11:09:51;;;;;;;10.70;6.25;;;;;;;;;;5035361;28;20025;-78
2023/01/26 11:12:18;;;;;;;13.57;5.70;;;;;;;;;;5035737;28;20056;-78
2023/01/26 11:14:58;;;;;;;10.32;5.47;;;;;;;;;;5018814;28;20052;-78
2023/01/26 11:17:25;;;;;;;11.32;5.70;;;;;;;;;;5053054;28;20024;-77
2023/01/26 11:20:02;;;;;;;8.77;4.97;;;;;;;;;;5034999;28;20105;-78
2023/01/26 11:23:15;;;;;;;8.80;4.90;;;;;;;;;;5035354;28;20491;-78
2023/01/26 11:25:47;;;;;;;11.32;5.00;;;;;;;;;;5045608;28;20040;-79
2023/01/26 11:28:54;;;;;;;9.15;4.55;;;;;;;;;;5034903;28;20095;-79
2023/01/26 11:31:43;;;;;;;10.60;4.72;;;;;;;;;;4981745;28;20039;-79
2023/01/26 11:34:27;;;;;;;12.10;5.47;;;;;;;;;;5053362;28;20075;-79
2023/01/26 11:37:38;;;;;;;8.00;4.53;;;;;;;;;;5035325;28;20031;-79
2023/01/26 11:40:39;;;;;;;8.15;4.47;;;;;;;;;;5032279;28;20044;-80
2023/01/26 11:43:26;;;;;;;7.85;3.80;;;;;;;;;;5027514;28;20045;-80
2023/01/26 11:46:13;;;;;;;8.55;3.38;;;;;;;;;;5052759;28;20016;-79
2023/01/26 11:48:47;;;;;;;8.10;3.92;;;;;;;;;;5034897;28;20464;-79
2023/01/26 11:51:55;;;;;;;7.30;3.33;;;;;;;;;;5034842;28;20035;-79
2023/01/26 11:54:34;;;;;;;11.43;3.30;;;;;;;;;;4973106;28;20044;-80
2023/01/26 11:57:05;;;;;;;9.40;3.50;;;;;;;;;;5052415;28;20060;-80
2023/01/26 11:59:35;;;;;;;7.50;3.47;;;;;;;;;;5052276;28;20033;-78
2023/01/26 12:02:10;;;;;;;8.45;2.90;;;;;;;;;;5036107;28;20124;-76
2023/01/26 12:04:36;;;;;;;7.68;3.45;;;;;;;;;;5021666;28;20531;-78
2023/01/26 12:07:16;;;;;;;7.88;3.20;;;;;;;;;;5038579;28;20120;-78
2023/01/26 12:09:45;;;;;;;7.05;3.25;;;;;;;;;;5038389;28;20021;-79
2023/01/26 12:12:21;;;;;;;7.22;3.22;;;;;;;;;;5038494;28;20036;-78
2023/01/26 12:14:50;;;;;;;6.57;3.22;;;;;;;;;;5038438;28;20464;-79
2023/01/26 12:17:34;;;;;;;9.55;3.55;;;;;;;;;;5038244;28;20056;-78
2023/01/26 12:20:11;;;;;;;8.68;2.80;;;;;;;;;;5065566;28;20529;-79
2023/01/26 12:22:39;;;;;;;6.82;2.92;;;;;;;;;;5058195;28;20115;-79
2023/01/26 12:25:17;;;;;;;6.30;2.92;;;;;;;;;;5058029;28;20560;-79
2023/01/26 12:27:52;;;;;;;9.57;3.28;;;;;;;;;;5075955;28;20032;-78
2023/01/26 12:30:24;;;;;;;7.70;2.92;;;;;;;;;;5057947;28;20035;-79
2023/01/26 12:32:50;;;;;;;6.80;2.60;;;;;;;;;;5075693;28;20021;-78
2023/01/26 12:35:44;;;;;;;5.78;2.63;;;;;;;;;;5058110;28;20371;-78
2023/01/26 12:38:13;;;;;;;9.00;2.65;;;;;;;;;;5058257;28;20044;-78
2023/01/26 12:41:05;;;;;;;5.47;2.88;;;;;;;;;;5057860;28;20115;-79
2023/01/26 12:43:50;;;;;;;6.25;2.67;;;;;;;;;;5057914;28;20025;-78
2023/01/26 12:46:16;;;;;;;8.52;2.90;;;;;;;;;;5057850;28;20099;-79
2023/01/26 12:48:51;;;;;;;5.88;2.58;;;;;;;;;;5041196;28;20063;-79
2023/01/26 12:51:28;;;;;;;4.85;2.33;;;;;;;;;;5040916;28;20467;-80
2023/01/26 12:54:40;;;;;;;7.35;2.67;;;;;;;;;;5057663;28;20024;-79
2023/01/26 12:57:11;;;;;;;6.85;2.58;;;;;;;;;;5039836;28;20032;-79
2023/01/26 12:59:38;;;;;;;10.20;2.63;;;;;;;;;;5057548;28;20016;-77
2023/01/26 13:02:28;;;;;;;7.40;2.65;;;;;;;;;;5056619;28;20052;-78
2023/01/26 13:04:56;;;;;;;7.28;2.53;;;;;;;;;;5029230;28;20051;-79
2023/01/26 13:07:35;;;;;;;5.60;2.10;;;;;;;;;;5037711;28;20379;-79
2023/01/26 13:10:18;;;;;;;5.47;2.35;;;;;;;;;;5055188;28;20021;-80
2023/01/26 13:12:47;;;;;;;5.88;2.13;;;;;;;;;;5054783;28;20384;-79
2023/01/26 13:15:14;;;;;;;5.32;2.22;;;;;;;;;;5037391;28;20071;-79
2023/01/26 13:17:48;;;;;;;6.50;2.55;;;;;;;;;;5037185;28;20100;-80
2023/01/26 13:20:14;;;;;;;;;;;;;;;;;;5026140;28;20057;-77
2023/01/26 13:22:40;;;;;;;8.07;2.05;;;;;;;;;;5033777;28;19962;-79
2023/01/26 13:25:17;;;;;;;5.10;1.77;;;;;;;;;;5035137;28;20469;-79
2023/01/26 13:27:46;;;;;;;4.15;2.35;;;;;;;;;;5034929;28;20025;-79
2023/01/26 13:30:20;;;;;;;4.30;2.00;;;;;;;;;;5017101;28;20542;-79
2023/01/26 13:32:46;;;;;;;4.50;1.95;;;;;;;;;;5034826;28;20025;-79
2023/01/26 13:35:12;;;;;;;9.40;1.98;;;;;;;;;;5034629;28;20384;-79
2023/01/26 13:37:52;;;;;;;5.93;2.47;;;;;;;;;;5016923;28;20041;-80
2023/01/26 13:40:31;;;;;;;4.45;1.80;;;;;;;;;;5034477;28;20396;-79
2023/01/26 13:43:29;;;;;;;5.55;1.75;;;;;;;;;;5017313;28;20392;-79
2023/01/26 13:46:13;;;;;;;3.30;1.85;;;;;;;;;;5034486;28;20033;-79
2023/01/26 13:48:42;;;;;;;6.18;2.15;;;;;;;;;;5034408;28;20035;-79
2023/01/26 13:51:18;;;;;;;5.00;1.60;;;;;;;;;;5016910;28;20552;-79
2023/01/26 13:53:52;;;;;;;4.03;1.80;;;;;;;;;;5016725;28;20013;-79
2023/01/26 13:56:32;;;;;;;4.70;1.90;;;;;;;;;;5034365;28;20033;-79
2023/01/26 13:59:16;;;;;;;5.78;2.03;;;;;;;;;;5016681;28;20029;-79
2023/01/26 14:01:52;;;;;;;4.90;1.70;;;;;;;;;;5000171;28;20472;-80
2023/01/26 14:04:22;;;;;;;6.28;1.92;;;;;;;;;;5016494;28;20025;-79
2023/01/26 14:07:17;;;;;;;3.53;1.75;;;;;;;;;;5016574;28;20025;-79
2023/01/26 14:09:44;;;;;;;4.55;1.73;;;;;;;;;;5034120;28;20111;-79
2023/01/26 14:12:16;;;;;;;5.28;1.80;;;;;;;;;;5016777;28;20079;-79
2023/01/26 14:14:46;;;;;;;3.83;1.60;;;;;;;;;;5016452;28;20021;-79
2023/01/26 14:17:32;;;;;;;5.05;1.70;;;;;;;;;;5016671;28;20048;-79
2023/01/26 14:19:59;;;;;;;5.63;1.75;;;;;;;;;;5025412;28;20037;-79
2023/01/26 14:22:25;;;;;;;3.90;1.55;;;;;;;;;;5036043;28;20029;-80
2023/01/26 14:24:52;;;;;;;4.57;1.80;;;;;;;;;;5053419;28;20021;-79
2023/01/26 14:27:36;;;;;;;4.57;1.85;;;;;;;;;;5053863;28;20051;-79
2023/01/26 14:30:21;;;;;;;5.32;1.65;;;;;;;;;;5035737;28;20455;-79
2023/01/26 14:32:47;;;;;;;4.55;1.80;;;;;;;;;;5054002;28;20102;-79
2023/01/26 14:35:21;;;;;;;5.75;1.88;;;;;;;;;;5035711;28;20464;-79
2023/01/26 14:37:46;;;;;;;6.22;1.77;;;;;;;;;;5053497;28;20040;-80
2023/01/26 14:40:22;;;;;;;4.88;1.80;;;;;;;;;;5035494;28;20025;-79
2023/01/26 14:42:49;;;;;;;2.17;1.35;;;;;;;;;;5053801;28;20495;-79
2023/01/26 14:45:15;;;;;;;4.03;1.67;;;;;;;;;;5053541;28;20029;-79
2023/01/26 14:47:41;;;;;;;3.53;1.30;;;;;;;;;;5036137;28;20025;-80
2023/01/26 14:50:27;;;;;;;6.00;1.52;;;;;;;;;;5035973;28;20029;-79
2023/01/26 14:52:52;;;;;;;4.20;1.42;;;;;;;;;;5035784;28;20048;-80
2023/01/26 14:55:25;;;;;;;3.17;1.58;;;;;;;;;;5018930;28;20476;-80
2023/01/26 14:57:51;;;;;;;4.05;1.63;;;;;;;;;;5035771;28;20484;-80
2023/01/26 15:00:27;;;;;;;4.25;1.52;;;;;;;;;;5035369;28;20037;-79
2023/01/26 15:02:54;;;;;;;3.40;1.50;;;;;;;;;;5036138;28;20070;-79
2023/01/26 15:05:22;;;;;;;4.30;1.50;;;;;;;;;;5035453;28;20052;-79
2023/01/26 15:07:58;;;;;;;2.40;1.17;;;;;;;;;;5035213;28;20356;-79
2023/01/26 15:10:36;;;;;;;4.97;1.73;;;;;;;;;;5035604;28;20032;-79
2023/01/26 15:13:03;;;;;;;5.07;1.73;;;;;;;;;;5035928;28;20086;-79
2023/01/26 15:15:32;;;;;;;2.95;1.30;;;;;;;;;;5035318;28;20028;-79
2023/01/26 15:18:13;;;;;;;5.03;1.63;;;;;;;;;;5035252;28;20082;-79
2023/01/26 15:21:00;;;;;;;4.55;1.70;;;;;;;;;;5035018;28;20115;-79
2023/01/26 15:23:45;;;;;;;3.65;1.50;;;;;;;;;;5035976;28;20104;-79
2023/01/26 15:26:30;;;;;;;4.75;1.50;;;;;;;;;;5035012;28;20029;-79
2023/01/26 15:28:58;;;;;;;3.70;1.25;;;;;;;;;;5035257;28;20032;-79
2023/01/26 15:31:33;;;;;;;2.97;1.40;;;;;;;;;;5035143;28;20036;-79